sensor_id;sensor_type;location;lat;lon;timestamp;pressure;altitude;pressure_sealevel;temperature;humidity
49943;BME280;36011;53.362;58.948;2024-03-08T00:01:58;96580.91;;;-15.21;60.45
49943;BME280;36011;53.362;58.948;2024-03-08T00:04:59;96597.97;;;-15.14;60.57
49943;BME280;36011;53.362;58.948;2024-03-08T00:08:03;96597.00;;;-15.18;60.83
49943;BME280;36011;53.362;58.948;2024-03-08T00:11:07;96595.97;;;-15.24;60.80
49943;BME280;36011;53.362;58.948;2024-03-08T00:14:12;96599.53;;;-15.18;61.02
49943;BME280;36011;53.362;58.948;2024-03-08T00:17:16;96594.47;;;-14.89;60.34
49943;BME280;36011;53.362;58.948;2024-03-08T00:20:20;96584.03;;;-15.01;60.67
49943;BME280;36011;53.362;58.948;2024-03-08T00:23:24;96578.72;;;-15.10;60.75
49943;BME280;36011;53.362;58.948;2024-03-08T00:26:26;96578.81;;;-15.07;60.74
49943;BME280;36011;53.362;58.948;2024-03-08T00:29:27;96578.03;;;-15.05;60.64
49943;BME280;36011;53.362;58.948;2024-03-08T00:32:28;96577.41;;;-15.26;61.06
49943;BME280;36011;53.362;58.948;2024-03-08T00:35:30;96580.66;;;-15.02;60.63
49943;BME280;36011;53.362;58.948;2024-03-08T00:38:31;96565.25;;;-15.11;60.72
49943;BME280;36011;53.362;58.948;2024-03-08T00:41:35;96566.63;;;-15.21;60.82
49943;BME280;36011;53.362;58.948;2024-03-08T00:44:36;96564.25;;;-15.16;61.18
49943;BME280;36011;53.362;58.948;2024-03-08T00:47:39;96559.66;;;-15.29;61.20
49943;BME280;36011;53.362;58.948;2024-03-08T00:50:40;96559.97;;;-15.46;61.39
49943;BME280;36011;53.362;58.948;2024-03-08T00:53:42;96550.00;;;-15.43;61.92
49943;BME280;36011;53.362;58.948;2024-03-08T00:56:44;96551.81;;;-15.39;61.45
49943;BME280;36011;53.362;58.948;2024-03-08T00:59:50;96558.47;;;-15.41;61.40
49943;BME280;36011;53.362;58.948;2024-03-08T01:02:51;96556.50;;;-15.51;61.42
49943;BME280;36011;53.362;58.948;2024-03-08T01:05:52;96554.84;;;-15.49;61.88
49943;BME280;36011;53.362;58.948;2024-03-08T01:08:54;96554.19;;;-15.43;61.93
49943;BME280;36011;53.362;58.948;2024-03-08T01:11:57;96551.81;;;-15.39;62.17
49943;BME280;36011;53.362;58.948;2024-03-08T01:15:03;96554.84;;;-15.22;61.91
49943;BME280;36011;53.362;58.948;2024-03-08T01:18:05;96539.13;;;-15.40;61.98
49943;BME280;36011;53.362;58.948;2024-03-08T01:21:11;96553.97;;;-15.22;62.10
49943;BME280;36011;53.362;58.948;2024-03-08T01:24:12;96540.22;;;-15.32;62.11
49943;BME280;36011;53.362;58.948;2024-03-08T01:27:18;96541.06;;;-15.31;62.45
49943;BME280;36011;53.362;58.948;2024-03-08T01:30:22;96549.19;;;-15.13;62.11
49943;BME280;36011;53.362;58.948;2024-03-08T01:33:26;96535.75;;;-15.12;61.86
49943;BME280;36011;53.362;58.948;2024-03-08T01:36:33;96530.78;;;-15.09;61.67
49943;BME280;36011;53.362;58.948;2024-03-08T01:39:36;96530.59;;;-15.17;61.90
49943;BME280;36011;53.362;58.948;2024-03-08T01:42:42;96525.66;;;-15.12;61.50
49943;BME280;36011;53.362;58.948;2024-03-08T01:45:46;96523.31;;;-15.34;62.00
49943;BME280;36011;53.362;58.948;2024-03-08T01:48:48;96524.66;;;-15.46;61.94
49943;BME280;36011;53.362;58.948;2024-03-08T01:51:50;96514.41;;;-15.52;62.23
49943;BME280;36011;53.362;58.948;2024-03-08T01:54:56;96497.50;;;-15.56;62.15
49943;BME280;36011;53.362;58.948;2024-03-08T01:58:03;96515.31;;;-15.21;61.84
49943;BME280;36011;53.362;58.948;2024-03-08T02:01:07;96520.69;;;-15.39;62.27
49943;BME280;36011;53.362;58.948;2024-03-08T02:04:15;96513.88;;;-15.42;62.30
49943;BME280;36011;53.362;58.948;2024-03-08T02:07:17;96511.72;;;-15.58;62.41
49943;BME280;36011;53.362;58.948;2024-03-08T02:10:19;96503.41;;;-15.82;62.77
49943;BME280;36011;53.362;58.948;2024-03-08T02:13:23;96504.25;;;-15.83;62.93
49943;BME280;36011;53.362;58.948;2024-03-08T02:16:27;96510.00;;;-15.88;63.12
49943;BME280;36011;53.362;58.948;2024-03-08T02:19:34;96513.06;;;-15.96;63.06
49943;BME280;36011;53.362;58.948;2024-03-08T02:22:38;96494.56;;;-15.97;62.59
49943;BME280;36011;53.362;58.948;2024-03-08T02:25:44;96506.56;;;-15.90;63.00
49943;BME280;36011;53.362;58.948;2024-03-08T02:28:45;96504.84;;;-15.91;62.92
49943;BME280;36011;53.362;58.948;2024-03-08T02:31:54;96493.72;;;-15.70;62.59
49943;BME280;36011;53.362;58.948;2024-03-08T02:34:56;96504.41;;;-15.77;62.27
49943;BME280;36011;53.362;58.948;2024-03-08T02:38:04;96510.78;;;-15.60;62.05
49943;BME280;36011;53.362;58.948;2024-03-08T02:41:09;96501.84;;;-15.50;61.80
49943;BME280;36011;53.362;58.948;2024-03-08T02:44:14;96497.75;;;-15.47;61.26
49943;BME280;36011;53.362;58.948;2024-03-08T02:47:21;96499.78;;;-15.64;61.44
49943;BME280;36011;53.362;58.948;2024-03-08T02:50:24;96492.25;;;-15.62;62.13
49943;BME280;36011;53.362;58.948;2024-03-08T02:53:29;96487.84;;;-15.41;62.09
49943;BME280;36011;53.362;58.948;2024-03-08T02:56:33;96485.94;;;-15.19;62.14
49943;BME280;36011;53.362;58.948;2024-03-08T02:59:38;96482.44;;;-14.93;61.91
49943;BME280;36011;53.362;58.948;2024-03-08T03:02:44;96483.94;;;-14.34;61.46
49943;BME280;36011;53.362;58.948;2024-03-08T03:05:46;96475.84;;;-14.21;61.42
49943;BME280;36011;53.362;58.948;2024-03-08T03:08:50;96483.56;;;-13.80;60.81
49943;BME280;36011;53.362;58.948;2024-03-08T03:11:57;96472.34;;;-13.53;60.67
49943;BME280;36011;53.362;58.948;2024-03-08T03:15:04;96482.22;;;-13.26;60.16
49943;BME280;36011;53.362;58.948;2024-03-08T03:18:07;96469.38;;;-13.34;60.22
49943;BME280;36011;53.362;58.948;2024-03-08T03:21:09;96469.69;;;-13.19;60.09
49943;BME280;36011;53.362;58.948;2024-03-08T03:24:11;96478.00;;;-13.24;60.39
49943;BME280;36011;53.362;58.948;2024-03-08T03:27:15;96472.03;;;-13.29;60.18
49943;BME280;36011;53.362;58.948;2024-03-08T03:30:17;96466.97;;;-13.29;60.03
49943;BME280;36011;53.362;58.948;2024-03-08T03:33:22;96466.75;;;-12.96;59.69
49943;BME280;36011;53.362;58.948;2024-03-08T03:36:31;96471.19;;;-12.84;59.46
49943;BME280;36011;53.362;58.948;2024-03-08T03:39:32;96463.53;;;-12.42;58.84
49943;BME280;36011;53.362;58.948;2024-03-08T03:42:42;96454.59;;;-12.20;58.85
49943;BME280;36011;53.362;58.948;2024-03-08T03:45:43;96456.91;;;-11.78;57.64
49943;BME280;36011;53.362;58.948;2024-03-08T03:48:47;96463.84;;;-11.67;57.30
49943;BME280;36011;53.362;58.948;2024-03-08T03:51:51;96459.81;;;-11.55;56.68
49943;BME280;36011;53.362;58.948;2024-03-08T03:54:55;96466.78;;;-11.38;56.52
49943;BME280;36011;53.362;58.948;2024-03-08T03:57:57;96462.72;;;-11.28;56.71
49943;BME280;36011;53.362;58.948;2024-03-08T04:00:59;96457.72;;;-11.21;56.38
49943;BME280;36011;53.362;58.948;2024-03-08T04:04:03;96466.47;;;-10.99;56.30
49943;BME280;36011;53.362;58.948;2024-03-08T04:07:09;96466.34;;;-11.08;56.43
49943;BME280;36011;53.362;58.948;2024-03-08T04:10:12;96464.19;;;-10.77;55.98
49943;BME280;36011;53.362;58.948;2024-03-08T04:13:13;96463.53;;;-10.59;55.31
49943;BME280;36011;53.362;58.948;2024-03-08T04:16:16;96471.09;;;-10.66;55.37
49943;BME280;36011;53.362;58.948;2024-03-08T04:19:21;96468.69;;;-10.52;54.96
49943;BME280;36011;53.362;58.948;2024-03-08T04:22:22;96472.94;;;-10.52;55.17
49943;BME280;36011;53.362;58.948;2024-03-08T04:25:24;96467.84;;;-10.52;55.05
49943;BME280;36011;53.362;58.948;2024-03-08T04:28:25;96474.69;;;-10.47;55.04
49943;BME280;36011;53.362;58.948;2024-03-08T04:31:27;96468.69;;;-10.52;55.08
49943;BME280;36011;53.362;58.948;2024-03-08T04:34:31;96473.88;;;-10.43;55.25
49943;BME280;36011;53.362;58.948;2024-03-08T04:37:36;96473.03;;;-10.42;55.01
49943;BME280;36011;53.362;58.948;2024-03-08T04:40:40;96480.75;;;-10.35;55.19
49943;BME280;36011;53.362;58.948;2024-03-08T04:43:43;96476.53;;;-10.32;54.97
49943;BME280;36011;53.362;58.948;2024-03-08T04:46:47;96474.88;;;-10.24;54.97
49943;BME280;36011;53.362;58.948;2024-03-08T04:49:50;96469.13;;;-10.03;54.07
49943;BME280;36011;53.362;58.948;2024-03-08T04:52:55;96465.66;;;-10.11;53.68
49943;BME280;36011;53.362;58.948;2024-03-08T04:55:56;96461.38;;;-10.17;54.17
49943;BME280;36011;53.362;58.948;2024-03-08T04:58:59;96462.38;;;-9.98;53.82
49943;BME280;36011;53.362;58.948;2024-03-08T05:02:02;96462.47;;;-9.88;53.64
49943;BME280;36011;53.362;58.948;2024-03-08T05:05:05;96463.44;;;-9.73;53.06
49943;BME280;36011;53.362;58.948;2024-03-08T05:08:07;96464.31;;;-9.69;53.27
49943;BME280;36011;53.362;58.948;2024-03-08T05:11:08;96460.16;;;-9.55;53.40
49943;BME280;36011;53.362;58.948;2024-03-08T05:14:13;96463.66;;;-9.42;52.55
49943;BME280;36011;53.362;58.948;2024-03-08T05:17:17;96469.66;;;-9.32;52.39
49943;BME280;36011;53.362;58.948;2024-03-08T05:20:21;96467.09;;;-9.32;52.44
49943;BME280;36011;53.362;58.948;2024-03-08T05:23:23;96452.72;;;-9.21;52.25
49943;BME280;36011;53.362;58.948;2024-03-08T05:26:24;96456.22;;;-9.04;51.83
49943;BME280;36011;53.362;58.948;2024-03-08T05:29:26;96459.66;;;-8.92;51.48
49943;BME280;36011;53.362;58.948;2024-03-08T05:32:27;96448.66;;;-8.88;50.98
49943;BME280;36011;53.362;58.948;2024-03-08T05:35:28;96452.94;;;-8.76;50.82
49943;BME280;36011;53.362;58.948;2024-03-08T05:38:32;96458.97;;;-8.57;50.67
49943;BME280;36011;53.362;58.948;2024-03-08T05:41:37;96452.16;;;-8.34;50.62
49943;BME280;36011;53.362;58.948;2024-03-08T05:44:43;96451.34;;;-8.11;50.24
49943;BME280;36011;53.362;58.948;2024-03-08T05:47:48;96444.38;;;-6.87;48.94
49943;BME280;36011;53.362;58.948;2024-03-08T05:50:50;96451.72;;;-0.91;41.61
49943;BME280;36011;53.362;58.948;2024-03-08T05:53:54;96442.50;;;4.43;33.79
49943;BME280;36011;53.362;58.948;2024-03-08T05:56:59;96444.09;;;8.27;27.73
49943;BME280;36011;53.362;58.948;2024-03-08T06:00:03;96446.34;;;11.16;24.30
49943;BME280;36011;53.362;58.948;2024-03-08T06:03:05;96452.09;;;14.50;22.26
49943;BME280;36011;53.362;58.948;2024-03-08T06:06:06;96430.81;;;17.45;20.02
49943;BME280;36011;53.362;58.948;2024-03-08T06:09:12;96438.72;;;19.68;17.75
49943;BME280;36011;53.362;58.948;2024-03-08T06:12:17;96428.09;;;20.88;16.76
49943;BME280;36011;53.362;58.948;2024-03-08T06:15:20;96422.00;;;21.57;15.60
49943;BME280;36011;53.362;58.948;2024-03-08T06:18:24;96415.97;;;22.15;14.29
49943;BME280;36011;53.362;58.948;2024-03-08T06:21:30;96411.00;;;22.72;13.64
49943;BME280;36011;53.362;58.948;2024-03-08T06:24:33;96416.72;;;23.35;12.71
49943;BME280;36011;53.362;58.948;2024-03-08T06:27:39;96407.25;;;23.75;12.69
49943;BME280;36011;53.362;58.948;2024-03-08T06:30:43;96412.00;;;25.05;11.75
49943;BME280;36011;53.362;58.948;2024-03-08T06:33:44;96404.50;;;25.82;10.96
49943;BME280;36011;53.362;58.948;2024-03-08T06:36:51;96396.41;;;26.42;10.55
49943;BME280;36011;53.362;58.948;2024-03-08T06:39:58;96410.94;;;27.06;9.85
49943;BME280;36011;53.362;58.948;2024-03-08T06:43:02;96391.88;;;26.03;9.33
49943;BME280;36011;53.362;58.948;2024-03-08T06:46:06;96382.34;;;25.73;10.06
49943;BME280;36011;53.362;58.948;2024-03-08T06:49:15;96390.84;;;25.97;9.63
49943;BME280;36011;53.362;58.948;2024-03-08T06:52:17;96383.59;;;26.89;9.42
49943;BME280;36011;53.362;58.948;2024-03-08T06:55:19;96383.19;;;26.92;8.82
49943;BME280;36011;53.362;58.948;2024-03-08T06:58:25;96380.41;;;26.54;9.04
49943;BME280;36011;53.362;58.948;2024-03-08T07:01:30;96379.63;;;26.20;8.88
49943;BME280;36011;53.362;58.948;2024-03-08T07:04:39;96366.59;;;24.89;8.84
49943;BME280;36011;53.362;58.948;2024-03-08T07:07:43;96367.69;;;23.90;9.25
49943;BME280;36011;53.362;58.948;2024-03-08T07:10:47;96368.59;;;24.04;9.58
49943;BME280;36011;53.362;58.948;2024-03-08T07:13:55;96365.91;;;24.39;9.24
49943;BME280;36011;53.362;58.948;2024-03-08T07:16:56;96351.53;;;24.18;8.96
49943;BME280;36011;53.362;58.948;2024-03-08T07:20:00;96361.13;;;23.50;9.35
49943;BME280;36011;53.362;58.948;2024-03-08T07:23:08;96357.91;;;23.18;9.83
49943;BME280;36011;53.362;58.948;2024-03-08T07:26:15;96352.50;;;24.11;9.51
49943;BME280;36011;53.362;58.948;2024-03-08T07:29:18;96353.56;;;23.82;9.31
49943;BME280;36011;53.362;58.948;2024-03-08T07:32:22;96345.28;;;24.11;9.43
49943;BME280;36011;53.362;58.948;2024-03-08T07:35:25;96344.72;;;25.12;9.35
49943;BME280;36011;53.362;58.948;2024-03-08T07:38:27;96339.94;;;24.53;9.17
49943;BME280;36011;53.362;58.948;2024-03-08T07:41:30;96339.78;;;24.54;9.09
49943;BME280;36011;53.362;58.948;2024-03-08T07:44:34;96335.13;;;24.90;8.96
49943;BME280;36011;53.362;58.948;2024-03-08T07:47:35;96339.00;;;25.75;8.87
49943;BME280;36011;53.362;58.948;2024-03-08T07:50:38;96327.00;;;25.84;8.63
49943;BME280;36011;53.362;58.948;2024-03-08T07:53:44;96317.41;;;25.15;9.04
49943;BME280;36011;53.362;58.948;2024-03-08T07:56:50;96327.22;;;24.75;8.63
49943;BME280;36011;53.362;58.948;2024-03-08T07:59:52;96316.50;;;25.01;9.14
49943;BME280;36011;53.362;58.948;2024-03-08T08:02:56;96320.75;;;26.04;8.65
49943;BME280;36011;53.362;58.948;2024-03-08T08:05:58;96314.59;;;27.38;8.20
49943;BME280;36011;53.362;58.948;2024-03-08T08:08:59;96313.28;;;27.72;8.22
49943;BME280;36011;53.362;58.948;2024-03-08T08:12:04;96319.81;;;27.90;8.00
49943;BME280;36011;53.362;58.948;2024-03-08T08:15:08;96307.13;;;28.34;7.91
49943;BME280;36011;53.362;58.948;2024-03-08T08:18:10;96314.41;;;29.00;7.63
49943;BME280;36011;53.362;58.948;2024-03-08T08:21:13;96312.72;;;29.48;7.19
49943;BME280;36011;53.362;58.948;2024-03-08T08:24:20;96303.91;;;29.11;7.38
49943;BME280;36011;53.362;58.948;2024-03-08T08:27:22;96294.22;;;28.84;7.39
49943;BME280;36011;53.362;58.948;2024-03-08T08:30:26;96296.84;;;27.99;7.86
49943;BME280;36011;53.362;58.948;2024-03-08T08:33:31;96297.09;;;27.09;7.76
49943;BME280;36011;53.362;58.948;2024-03-08T08:36:35;96280.94;;;25.92;8.23
49943;BME280;36011;53.362;58.948;2024-03-08T08:39:42;96280.16;;;24.09;8.84
49943;BME280;36011;53.362;58.948;2024-03-08T08:42:46;96281.34;;;23.01;9.55
49943;BME280;36011;53.362;58.948;2024-03-08T08:45:48;96276.69;;;22.52;9.78
49943;BME280;36011;53.362;58.948;2024-03-08T08:48:56;96283.53;;;22.54;9.83
49943;BME280;36011;53.362;58.948;2024-03-08T08:52:02;96278.72;;;22.50;9.90
49943;BME280;36011;53.362;58.948;2024-03-08T08:55:04;96282.28;;;22.35;9.87
49943;BME280;36011;53.362;58.948;2024-03-08T08:58:07;96279.69;;;24.06;9.80
49943;BME280;36011;53.362;58.948;2024-03-08T09:01:15;96273.22;;;23.65;9.32
49943;BME280;36011;53.362;58.948;2024-03-08T09:04:22;96269.97;;;23.98;9.36
49943;BME280;36011;53.362;58.948;2024-03-08T09:07:26;96280.16;;;24.09;9.32
49943;BME280;36011;53.362;58.948;2024-03-08T09:10:28;96269.19;;;25.34;9.33
49943;BME280;36011;53.362;58.948;2024-03-08T09:13:32;96272.66;;;25.74;8.71
49943;BME280;36011;53.362;58.948;2024-03-08T09:16:42;96276.00;;;25.76;8.73
49943;BME280;36011;53.362;58.948;2024-03-08T09:19:46;96271.84;;;25.60;8.54
49943;BME280;36011;53.362;58.948;2024-03-08T09:22:51;96261.91;;;25.61;8.98
49943;BME280;36011;53.362;58.948;2024-03-08T09:25:54;96256.66;;;24.99;9.17
49943;BME280;36011;53.362;58.948;2024-03-08T09:28:58;96254.63;;;24.40;9.48
49943;BME280;36011;53.362;58.948;2024-03-08T09:32:04;96257.88;;;23.52;9.77
49943;BME280;36011;53.362;58.948;2024-03-08T09:35:06;96249.16;;;22.79;10.17
49943;BME280;36011;53.362;58.948;2024-03-08T09:38:10;96246.84;;;21.74;10.57
49943;BME280;36011;53.362;58.948;2024-03-08T09:41:16;96241.22;;;20.93;11.10
49943;BME280;36011;53.362;58.948;2024-03-08T09:44:18;96237.16;;;20.74;10.82
49943;BME280;36011;53.362;58.948;2024-03-08T09:47:25;96241.66;;;19.64;11.59
49943;BME280;36011;53.362;58.948;2024-03-08T09:50:36;96230.63;;;18.78;11.86
49943;BME280;36011;53.362;58.948;2024-03-08T09:53:37;96234.59;;;18.91;11.88
49943;BME280;36011;53.362;58.948;2024-03-08T09:56:45;96236.09;;;18.85;11.54
49943;BME280;36011;53.362;58.948;2024-03-08T09:59:51;96219.97;;;18.78;12.26
49943;BME280;36011;53.362;58.948;2024-03-08T10:02:59;96237.44;;;20.25;11.30
49943;BME280;36011;53.362;58.948;2024-03-08T10:06:03;96231.13;;;18.90;11.78
49943;BME280;36011;53.362;58.948;2024-03-08T10:09:11;96227.13;;;18.03;12.54
49943;BME280;36011;53.362;58.948;2024-03-08T10:12:15;96227.44;;;17.31;12.81
49943;BME280;36011;53.362;58.948;2024-03-08T10:15:17;96221.59;;;16.66;13.44
49943;BME280;36011;53.362;58.948;2024-03-08T10:18:21;96222.41;;;16.12;13.72
49943;BME280;36011;53.362;58.948;2024-03-08T10:21:29;96220.25;;;15.43;14.04
49943;BME280;36011;53.362;58.948;2024-03-08T10:24:33;96217.31;;;14.11;14.95
49943;BME280;36011;53.362;58.948;2024-03-08T10:27:41;96218.50;;;12.33;16.13
49943;BME280;36011;53.362;58.948;2024-03-08T10:30:48;96212.47;;;11.33;17.23
49943;BME280;36011;53.362;58.948;2024-03-08T10:33:53;96220.81;;;11.49;17.33
49943;BME280;36011;53.362;58.948;2024-03-08T10:37:03;96213.53;;;12.19;16.53
49943;BME280;36011;53.362;58.948;2024-03-08T10:40:06;96215.69;;;12.13;16.24
49943;BME280;36011;53.362;58.948;2024-03-08T10:43:25;96222.31;;;12.82;15.83
49943;BME280;36011;53.362;58.948;2024-03-08T10:50:18;96216.72;;;11.79;16.69
49943;BME280;36011;53.362;58.948;2024-03-08T10:53:27;96215.75;;;12.55;16.17
49943;BME280;36011;53.362;58.948;2024-03-08T10:56:31;96225.06;;;13.43;15.50
49943;BME280;36011;53.362;58.948;2024-03-08T10:59:35;96210.13;;;13.12;15.76
49943;BME280;36011;53.362;58.948;2024-03-08T11:02:40;96223.22;;;13.34;15.91
49943;BME280;36011;53.362;58.948;2024-03-08T11:05:46;96214.22;;;13.46;15.49
49943;BME280;36011;53.362;58.948;2024-03-08T11:08:51;96205.00;;;12.47;16.31
49943;BME280;36011;53.362;58.948;2024-03-08T11:15:22;96203.84;;;12.61;16.37
49943;BME280;36011;53.362;58.948;2024-03-08T11:18:26;96205.25;;;13.78;15.45
49943;BME280;36011;53.362;58.948;2024-03-08T11:21:27;96208.06;;;13.77;15.39
49943;BME280;36011;53.362;58.948;2024-03-08T11:24:38;96198.91;;;12.68;16.22
49943;BME280;36011;53.362;58.948;2024-03-08T11:27:53;96204.25;;;12.03;16.38
49943;BME280;36011;53.362;58.948;2024-03-08T11:34:15;96193.56;;;11.39;17.00
49943;BME280;36011;53.362;58.948;2024-03-08T11:37:20;96189.72;;;10.98;17.37
49943;BME280;36011;53.362;58.948;2024-03-08T11:40:24;96187.56;;;11.14;16.94
49943;BME280;36011;53.362;58.948;2024-03-08T11:43:26;96190.19;;;11.14;17.07
49943;BME280;36011;53.362;58.948;2024-03-08T11:46:29;96177.25;;;10.07;17.97
49943;BME280;36011;53.362;58.948;2024-03-08T11:49:35;96188.28;;;9.27;18.74
49943;BME280;36011;53.362;58.948;2024-03-08T11:52:41;96182.66;;;8.57;19.24
49943;BME280;36011;53.362;58.948;2024-03-08T11:55:46;96177.28;;;7.93;20.32
49943;BME280;36011;53.362;58.948;2024-03-08T11:58:55;96177.59;;;8.01;20.59
49943;BME280;36011;53.362;58.948;2024-03-08T12:02:08;96171.00;;;7.41;21.00
49943;BME280;36011;53.362;58.948;2024-03-08T12:05:11;96180.25;;;6.77;21.46
49943;BME280;36011;53.362;58.948;2024-03-08T12:08:19;96175.09;;;6.16;22.32
49943;BME280;36011;53.362;58.948;2024-03-08T12:11:23;96169.41;;;5.32;23.35
49943;BME280;36011;53.362;58.948;2024-03-08T12:14:25;96168.69;;;4.65;23.89
49943;BME280;36011;53.362;58.948;2024-03-08T12:17:26;96170.75;;;4.76;24.03
49943;BME280;36011;53.362;58.948;2024-03-08T12:20:30;96160.22;;;4.77;23.94
49943;BME280;36011;53.362;58.948;2024-03-08T12:23:32;96161.72;;;4.15;24.99
49943;BME280;36011;53.362;58.948;2024-03-08T12:26:38;96154.50;;;3.50;25.67
49943;BME280;36011;53.362;58.948;2024-03-08T12:29:44;96151.19;;;3.10;26.46
49943;BME280;36011;53.362;58.948;2024-03-08T12:33:04;96111.31;;;2.55;27.10
49943;BME280;36011;53.362;58.948;2024-03-08T12:36:05;96159.56;;;2.21;28.46
49943;BME280;36011;53.362;58.948;2024-03-08T12:39:10;96159.75;;;1.11;29.17
49943;BME280;36011;53.362;58.948;2024-03-08T12:42:15;96150.00;;;0.49;29.75
49943;BME280;36011;53.362;58.948;2024-03-08T12:45:19;96157.31;;;-0.11;31.48
49943;BME280;36011;53.362;58.948;2024-03-08T12:48:25;96155.19;;;-0.52;32.70
49943;BME280;36011;53.362;58.948;2024-03-08T12:51:29;96141.59;;;-1.11;34.20
49943;BME280;36011;53.362;58.948;2024-03-08T12:54:33;96150.09;;;-1.67;35.45
49943;BME280;36011;53.362;58.948;2024-03-08T12:57:39;96150.88;;;-2.28;36.06
49943;BME280;36011;53.362;58.948;2024-03-08T13:00:47;96151.78;;;-2.63;36.80
49943;BME280;36011;53.362;58.948;2024-03-08T13:03:54;96149.22;;;-2.64;36.21
49943;BME280;36011;53.362;58.948;2024-03-08T13:07:01;96147.91;;;-2.81;36.47
49943;BME280;36011;53.362;58.948;2024-03-08T13:10:07;96142.84;;;-3.21;37.91
49943;BME280;36011;53.362;58.948;2024-03-08T13:13:10;96141.44;;;-3.75;38.63
49943;BME280;36011;53.362;58.948;2024-03-08T13:16:15;96141.56;;;-4.26;39.58
49943;BME280;36011;53.362;58.948;2024-03-08T13:19:21;96143.00;;;-4.59;39.95
49943;BME280;36011;53.362;58.948;2024-03-08T13:22:25;96139.09;;;-4.82;40.55
49943;BME280;36011;53.362;58.948;2024-03-08T13:25:26;96141.88;;;-4.96;41.33
49943;BME280;36011;53.362;58.948;2024-03-08T13:28:28;96145.81;;;-5.27;40.99
49943;BME280;36011;53.362;58.948;2024-03-08T13:31:40;96145.97;;;-5.39;41.08
49943;BME280;36011;53.362;58.948;2024-03-08T13:34:45;96145.22;;;-5.46;41.25
49943;BME280;36011;53.362;58.948;2024-03-08T13:37:49;96141.28;;;-5.70;42.43
49943;BME280;36011;53.362;58.948;2024-03-08T13:40:50;96140.75;;;-5.94;42.59
49943;BME280;36011;53.362;58.948;2024-03-08T13:43:55;96146.16;;;-6.18;43.02
49943;BME280;36011;53.362;58.948;2024-03-08T13:46:57;96158.28;;;-6.36;43.56
49943;BME280;36011;53.362;58.948;2024-03-08T13:50:02;96154.19;;;-6.52;44.48
49943;BME280;36011;53.362;58.948;2024-03-08T13:53:04;96143.38;;;-6.82;44.60
49943;BME280;36011;53.362;58.948;2024-03-08T13:56:06;96155.38;;;-6.91;44.88
49943;BME280;36011;53.362;58.948;2024-03-08T13:59:12;96148.72;;;-7.11;45.12
49943;BME280;36011;53.362;58.948;2024-03-08T14:02:15;96153.84;;;-7.12;45.71
49943;BME280;36011;53.362;58.948;2024-03-08T14:05:18;96154.88;;;-7.38;45.55
49943;BME280;36011;53.362;58.948;2024-03-08T14:08:22;96148.97;;;-7.48;45.63
49943;BME280;36011;53.362;58.948;2024-03-08T14:11:25;96148.19;;;-7.59;46.00
49943;BME280;36011;53.362;58.948;2024-03-08T14:14:36;96132.06;;;-7.69;46.39
49943;BME280;36011;53.362;58.948;2024-03-08T14:17:43;96146.50;;;-7.64;47.04
49943;BME280;36011;53.362;58.948;2024-03-08T14:20:47;96149.16;;;-7.78;47.00
49943;BME280;36011;53.362;58.948;2024-03-08T14:23:59;96153.41;;;-7.82;47.34
49943;BME280;36011;53.362;58.948;2024-03-08T14:27:03;96150.91;;;-7.96;47.55
49943;BME280;36011;53.362;58.948;2024-03-08T14:30:07;96148.47;;;-8.22;48.02
49943;BME280;36011;53.362;58.948;2024-03-08T14:33:13;96142.56;;;-8.34;48.25
49943;BME280;36011;53.362;58.948;2024-03-08T14:36:20;96147.72;;;-8.42;48.33
49943;BME280;36011;53.362;58.948;2024-03-08T14:39:24;96154.53;;;-8.40;48.20
49943;BME280;36011;53.362;58.948;2024-03-08T14:42:28;96146.03;;;-8.49;48.32
49943;BME280;36011;53.362;58.948;2024-03-08T14:45:34;96143.50;;;-8.57;48.40
49943;BME280;36011;53.362;58.948;2024-03-08T14:48:40;96143.50;;;-8.59;48.79
49943;BME280;36011;53.362;58.948;2024-03-08T14:51:45;96148.59;;;-8.59;49.03
49943;BME280;36011;53.362;58.948;2024-03-08T14:54:49;96146.06;;;-8.60;50.32
49943;BME280;36011;53.362;58.948;2024-03-08T14:57:51;96142.69;;;-9.00;50.96
49943;BME280;36011;53.362;58.948;2024-03-08T15:00:53;96147.81;;;-9.22;51.19
49943;BME280;36011;53.362;58.948;2024-03-08T15:04:00;96131.66;;;-9.21;51.51
49943;BME280;36011;53.362;58.948;2024-03-08T15:07:10;96145.22;;;-9.50;51.60
49943;BME280;36011;53.362;58.948;2024-03-08T15:10:14;96154.56;;;-9.61;51.76
49943;BME280;36011;53.362;58.948;2024-03-08T15:13:20;96152.00;;;-9.64;51.41
49943;BME280;36011;53.362;58.948;2024-03-08T15:16:28;96146.06;;;-9.63;51.47
49943;BME280;36011;53.362;58.948;2024-03-08T15:19:34;96138.41;;;-9.72;51.69
49943;BME280;36011;53.362;58.948;2024-03-08T15:22:35;96140.09;;;-9.71;51.96
49943;BME280;36011;53.362;58.948;2024-03-08T15:25:41;96150.25;;;-9.92;51.77
49943;BME280;36011;53.362;58.948;2024-03-08T15:28:49;96146.81;;;-9.98;51.69
49943;BME280;36011;53.362;58.948;2024-03-08T15:31:57;96140.84;;;-10.09;51.83
49943;BME280;36011;53.362;58.948;2024-03-08T15:35:00;96146.84;;;-9.91;51.47
49943;BME280;36011;53.362;58.948;2024-03-08T15:38:07;96139.94;;;-10.23;52.28
49943;BME280;36011;53.362;58.948;2024-03-08T15:41:13;96139.94;;;-10.20;52.89
49943;BME280;36011;53.362;58.948;2024-03-08T15:44:18;96138.25;;;-10.30;52.93
49943;BME280;36011;53.362;58.948;2024-03-08T15:47:24;96143.31;;;-10.36;53.25
49943;BME280;36011;53.362;58.948;2024-03-08T15:50:32;96138.16;;;-10.52;53.31
49943;BME280;36011;53.362;58.948;2024-03-08T15:53:42;96140.63;;;-10.66;53.40
49943;BME280;36011;53.362;58.948;2024-03-08T15:56:50;96144.81;;;-10.75;53.72
49943;BME280;36011;53.362;58.948;2024-03-08T15:59:57;96151.63;;;-10.65;53.62
49943;BME280;36011;53.362;58.948;2024-03-08T16:03:09;96142.34;;;-10.60;54.00
49943;BME280;36011;53.362;58.948;2024-03-08T16:06:16;96115.97;;;-10.83;53.97
49943;BME280;36011;53.362;58.948;2024-03-08T16:09:20;96133.78;;;-10.77;53.84
49943;BME280;36011;53.362;58.948;2024-03-08T16:12:27;96127.03;;;-10.75;54.55